DIAP/ABJ METAR and TAF weather

Enter ICAO airport designator
Station Type Date Time Source
DIAP METAR 2018/10/19 15:00 UTC NOAA

DIAP 191500Z 22008KT 9999 TS SCT012 FEW020CB SCT040 29/24 Q1008 TEMPO BKN012 FEW020CB


Station Type Date Time Source
DIAP Decoded METAR 2018/10/19 15:00 UTC NOAA

Abidjan, Cote d'Ivoire (DIAP) 05-15N 003-56W 8M
Oct 19, 2018 - 11:00 AM EDT / 2018.10.19 1500 UTC
Wind: from the SW (220 degrees) at 9 MPH (8 KT):0
Visibility: greater than 7 mile(s):0
Sky conditions: partly cloudy
Weather: thunder; Cumulonimbus clouds observed
Temperature: 84 F (29 C)
Dew Point: 75 F (24 C)
Relative Humidity: 74%
Pressure (altimeter): 29.77 in. Hg (1008 hPa)
ob: DIAP 191500Z 22008KT 9999 TS SCT012 FEW020CB SCT040 29/24 Q1008 TEMPO BKN012 FEW020CB
cycle: 15

Station Type Date Time Source
DIAP TAF 2018/10/19 13:09 UTC NOAA

TAF
AMD TAF
AMD DIAP 191300Z 1913/2018 20010KT 8000 SCT012 PROB40
TEMPO 1914/1920 BKN012 FEW020CB PROB30
TEMPO 1915/1919 TS


Example: see airport list